sensor_id;sensor_type;location;lat;lon;timestamp;P1;durP1;ratioP1;P2;durP2;ratioP2
72791;SDS011;60907;53.268;8.764;2022-09-09T00:09:45;16.75;;;8.68;;
72791;SDS011;60907;53.268;8.764;2022-09-09T00:15:07;17.95;;;9.40;;
72791;SDS011;60907;53.268;8.764;2022-09-09T00:20:34;16.30;;;9.88;;
72791;SDS011;60907;53.268;8.764;2022-09-09T00:28:38;17.17;;;9.52;;
72791;SDS011;60907;53.268;8.764;2022-09-09T00:31:13;15.43;;;9.27;;
72791;SDS011;60907;53.268;8.764;2022-09-09T00:33:41;15.07;;;9.55;;
72791;SDS011;60907;53.268;8.764;2022-09-09T00:36:15;15.23;;;9.15;;
72791;SDS011;60907;53.268;8.764;2022-09-09T00:39:02;15.23;;;8.68;;
72791;SDS011;60907;53.268;8.764;2022-09-09T00:57:33;15.00;;;8.30;;
72791;SDS011;60907;53.268;8.764;2022-09-09T01:00:19;16.48;;;8.75;;
72791;SDS011;60907;53.268;8.764;2022-09-09T01:10:49;19.23;;;10.57;;
72791;SDS011;60907;53.268;8.764;2022-09-09T01:13:25;17.85;;;9.73;;
72791;SDS011;60907;53.268;8.764;2022-09-09T01:15:59;18.42;;;9.55;;
72791;SDS011;60907;53.268;8.764;2022-09-09T01:18:26;17.27;;;8.95;;
72791;SDS011;60907;53.268;8.764;2022-09-09T01:23:36;17.40;;;8.70;;
72791;SDS011;60907;53.268;8.764;2022-09-09T01:29:09;16.40;;;9.07;;
72791;SDS011;60907;53.268;8.764;2022-09-09T01:31:41;14.02;;;8.15;;
72791;SDS011;60907;53.268;8.764;2022-09-09T01:34:11;15.77;;;9.57;;
72791;SDS011;60907;53.268;8.764;2022-09-09T01:36:57;16.55;;;8.93;;
72791;SDS011;60907;53.268;8.764;2022-09-09T01:39:31;16.42;;;9.18;;
72791;SDS011;60907;53.268;8.764;2022-09-09T01:42:00;18.13;;;9.10;;
72791;SDS011;60907;53.268;8.764;2022-09-09T01:44:26;14.32;;;8.73;;
72791;SDS011;60907;53.268;8.764;2022-09-09T01:46:52;14.75;;;8.25;;
72791;SDS011;60907;53.268;8.764;2022-09-09T01:49:18;19.52;;;11.18;;
72791;SDS011;60907;53.268;8.764;2022-09-09T01:51:43;17.77;;;9.75;;
72791;SDS011;60907;53.268;8.764;2022-09-09T01:54:11;17.38;;;9.93;;
72791;SDS011;60907;53.268;8.764;2022-09-09T01:59:13;17.95;;;10.13;;
72791;SDS011;60907;53.268;8.764;2022-09-09T02:04:41;19.63;;;10.55;;
72791;SDS011;60907;53.268;8.764;2022-09-09T02:10:01;19.08;;;9.70;;
72791;SDS011;60907;53.268;8.764;2022-09-09T02:12:31;18.10;;;8.77;;
72791;SDS011;60907;53.268;8.764;2022-09-09T02:14:59;17.45;;;9.57;;
72791;SDS011;60907;53.268;8.764;2022-09-09T02:17:30;19.33;;;10.00;;
72791;SDS011;60907;53.268;8.764;2022-09-09T02:20:04;17.02;;;10.35;;
72791;SDS011;60907;53.268;8.764;2022-09-09T02:22:32;15.73;;;8.95;;
72791;SDS011;60907;53.268;8.764;2022-09-09T02:24:59;20.42;;;9.77;;
72791;SDS011;60907;53.268;8.764;2022-09-09T02:27:25;20.88;;;10.77;;
72791;SDS011;60907;53.268;8.764;2022-09-09T02:29:51;15.57;;;9.45;;
72791;SDS011;60907;53.268;8.764;2022-09-09T02:32:17;17.83;;;9.88;;
72791;SDS011;60907;53.268;8.764;2022-09-09T02:34:48;14.40;;;9.80;;
72791;SDS011;60907;53.268;8.764;2022-09-09T02:37:15;15.77;;;8.32;;
72791;SDS011;60907;53.268;8.764;2022-09-09T02:39:43;19.35;;;10.20;;
72791;SDS011;60907;53.268;8.764;2022-09-09T02:42:09;17.67;;;9.88;;
72791;SDS011;60907;53.268;8.764;2022-09-09T02:44:34;16.52;;;9.70;;
72791;SDS011;60907;53.268;8.764;2022-09-09T02:47:14;19.58;;;10.05;;
72791;SDS011;60907;53.268;8.764;2022-09-09T02:55:26;17.30;;;9.63;;
72791;SDS011;60907;53.268;8.764;2022-09-09T02:58:01;14.20;;;9.32;;
72791;SDS011;60907;53.268;8.764;2022-09-09T03:00:29;16.90;;;9.35;;
72791;SDS011;60907;53.268;8.764;2022-09-09T03:02:55;18.67;;;9.70;;
72791;SDS011;60907;53.268;8.764;2022-09-09T03:05:21;17.27;;;9.45;;
72791;SDS011;60907;53.268;8.764;2022-09-09T03:07:47;16.95;;;9.30;;
72791;SDS011;60907;53.268;8.764;2022-09-09T03:10:12;19.85;;;10.30;;
72791;SDS011;60907;53.268;8.764;2022-09-09T03:12:38;17.33;;;10.07;;
72791;SDS011;60907;53.268;8.764;2022-09-09T03:15:04;17.08;;;10.18;;
72791;SDS011;60907;53.268;8.764;2022-09-09T03:17:30;15.77;;;9.50;;
72791;SDS011;60907;53.268;8.764;2022-09-09T03:19:56;17.63;;;9.95;;
72791;SDS011;60907;53.268;8.764;2022-09-09T03:22:22;19.25;;;10.20;;
72791;SDS011;60907;53.268;8.764;2022-09-09T03:24:48;18.17;;;9.25;;
72791;SDS011;60907;53.268;8.764;2022-09-09T03:27:13;15.70;;;9.18;;
72791;SDS011;60907;53.268;8.764;2022-09-09T03:29:42;17.17;;;9.27;;
72791;SDS011;60907;53.268;8.764;2022-09-09T03:32:07;15.80;;;9.00;;
72791;SDS011;60907;53.268;8.764;2022-09-09T03:34:35;17.13;;;8.85;;
72791;SDS011;60907;53.268;8.764;2022-09-09T03:37:02;17.40;;;9.63;;
72791;SDS011;60907;53.268;8.764;2022-09-09T03:39:27;16.98;;;9.82;;
72791;SDS011;60907;53.268;8.764;2022-09-09T03:41:53;16.55;;;9.80;;
72791;SDS011;60907;53.268;8.764;2022-09-09T03:44:19;15.95;;;8.52;;
72791;SDS011;60907;53.268;8.764;2022-09-09T03:46:44;17.10;;;9.75;;
72791;SDS011;60907;53.268;8.764;2022-09-09T03:49:10;18.75;;;9.20;;
72791;SDS011;60907;53.268;8.764;2022-09-09T03:51:36;15.40;;;8.80;;
72791;SDS011;60907;53.268;8.764;2022-09-09T03:54:01;15.98;;;8.82;;
72791;SDS011;60907;53.268;8.764;2022-09-09T03:56:30;15.50;;;9.07;;
72791;SDS011;60907;53.268;8.764;2022-09-09T03:58:55;13.85;;;8.85;;
72791;SDS011;60907;53.268;8.764;2022-09-09T04:01:21;14.45;;;8.98;;
72791;SDS011;60907;53.268;8.764;2022-09-09T04:03:46;16.83;;;10.07;;
72791;SDS011;60907;53.268;8.764;2022-09-09T04:06:12;15.48;;;9.68;;
72791;SDS011;60907;53.268;8.764;2022-09-09T04:08:39;17.17;;;9.98;;
72791;SDS011;60907;53.268;8.764;2022-09-09T04:11:05;15.63;;;9.18;;
72791;SDS011;60907;53.268;8.764;2022-09-09T04:13:31;16.27;;;8.48;;
72791;SDS011;60907;53.268;8.764;2022-09-09T04:15:59;15.90;;;8.93;;
72791;SDS011;60907;53.268;8.764;2022-09-09T04:18:25;14.15;;;8.38;;
72791;SDS011;60907;53.268;8.764;2022-09-09T04:20:53;12.98;;;8.15;;
72791;SDS011;60907;53.268;8.764;2022-09-09T04:23:20;16.08;;;9.23;;
72791;SDS011;60907;53.268;8.764;2022-09-09T04:25:46;14.52;;;8.20;;
72791;SDS011;60907;53.268;8.764;2022-09-09T04:28:13;13.52;;;8.25;;
72791;SDS011;60907;53.268;8.764;2022-09-09T04:30:40;13.50;;;8.30;;
72791;SDS011;60907;53.268;8.764;2022-09-09T04:33:06;14.10;;;8.20;;
72791;SDS011;60907;53.268;8.764;2022-09-09T04:35:32;17.88;;;8.25;;
72791;SDS011;60907;53.268;8.764;2022-09-09T04:37:58;12.90;;;7.60;;
72791;SDS011;60907;53.268;8.764;2022-09-09T04:40:23;13.77;;;7.05;;
72791;SDS011;60907;53.268;8.764;2022-09-09T04:42:49;13.88;;;7.88;;
72791;SDS011;60907;53.268;8.764;2022-09-09T04:45:15;14.27;;;7.65;;
72791;SDS011;60907;53.268;8.764;2022-09-09T04:47:40;13.43;;;8.35;;
72791;SDS011;60907;53.268;8.764;2022-09-09T04:50:06;15.50;;;8.20;;
72791;SDS011;60907;53.268;8.764;2022-09-09T04:52:33;12.65;;;8.00;;
72791;SDS011;60907;53.268;8.764;2022-09-09T04:55:00;14.93;;;7.90;;
72791;SDS011;60907;53.268;8.764;2022-09-09T04:57:26;13.32;;;7.50;;
72791;SDS011;60907;53.268;8.764;2022-09-09T04:59:51;12.80;;;6.72;;
72791;SDS011;60907;53.268;8.764;2022-09-09T05:02:17;11.48;;;7.25;;
72791;SDS011;60907;53.268;8.764;2022-09-09T05:04:42;10.52;;;7.18;;
72791;SDS011;60907;53.268;8.764;2022-09-09T05:07:08;12.75;;;6.95;;
72791;SDS011;60907;53.268;8.764;2022-09-09T05:09:33;11.27;;;6.72;;
72791;SDS011;60907;53.268;8.764;2022-09-09T05:11:59;11.00;;;6.38;;
72791;SDS011;60907;53.268;8.764;2022-09-09T05:14:24;12.25;;;6.65;;
72791;SDS011;60907;53.268;8.764;2022-09-09T05:16:49;11.95;;;6.28;;
72791;SDS011;60907;53.268;8.764;2022-09-09T05:19:15;10.85;;;6.65;;
72791;SDS011;60907;53.268;8.764;2022-09-09T05:21:44;9.68;;;6.07;;
72791;SDS011;60907;53.268;8.764;2022-09-09T05:24:09;11.93;;;6.85;;
72791;SDS011;60907;53.268;8.764;2022-09-09T05:26:35;13.63;;;7.13;;
72791;SDS011;60907;53.268;8.764;2022-09-09T05:29:00;11.57;;;6.60;;
72791;SDS011;60907;53.268;8.764;2022-09-09T05:31:26;10.43;;;6.68;;
72791;SDS011;60907;53.268;8.764;2022-09-09T05:33:53;12.57;;;6.60;;
72791;SDS011;60907;53.268;8.764;2022-09-09T05:36:19;11.65;;;6.47;;
72791;SDS011;60907;53.268;8.764;2022-09-09T05:41:11;13.10;;;5.82;;
72791;SDS011;60907;53.268;8.764;2022-09-09T05:43:37;13.10;;;6.10;;
72791;SDS011;60907;53.268;8.764;2022-09-09T05:48:33;12.52;;;6.40;;
72791;SDS011;60907;53.268;8.764;2022-09-09T05:51:03;12.00;;;5.90;;
72791;SDS011;60907;53.268;8.764;2022-09-09T05:53:31;10.48;;;6.68;;
72791;SDS011;60907;53.268;8.764;2022-09-09T05:56:06;9.45;;;6.05;;
72791;SDS011;60907;53.268;8.764;2022-09-09T05:58:42;14.50;;;6.82;;
72791;SDS011;60907;53.268;8.764;2022-09-09T06:04:07;12.07;;;6.15;;
72791;SDS011;60907;53.268;8.764;2022-09-09T06:06:34;11.00;;;6.43;;
72791;SDS011;60907;53.268;8.764;2022-09-09T06:09:01;11.60;;;6.07;;
72791;SDS011;60907;53.268;8.764;2022-09-09T06:11:29;13.57;;;5.97;;
72791;SDS011;60907;53.268;8.764;2022-09-09T06:13:56;10.93;;;6.15;;
72791;SDS011;60907;53.268;8.764;2022-09-09T06:16:23;13.10;;;6.50;;
72791;SDS011;60907;53.268;8.764;2022-09-09T06:18:50;9.60;;;5.63;;
72791;SDS011;60907;53.268;8.764;2022-09-09T06:21:16;11.65;;;5.90;;
72791;SDS011;60907;53.268;8.764;2022-09-09T06:23:42;13.55;;;7.30;;
72791;SDS011;60907;53.268;8.764;2022-09-09T06:26:16;8.32;;;5.63;;
72791;SDS011;60907;53.268;8.764;2022-09-09T06:28:43;12.85;;;5.88;;
72791;SDS011;60907;53.268;8.764;2022-09-09T06:31:13;12.02;;;5.90;;
72791;SDS011;60907;53.268;8.764;2022-09-09T06:33:41;11.85;;;5.35;;
72791;SDS011;60907;53.268;8.764;2022-09-09T06:36:16;11.18;;;5.75;;
72791;SDS011;60907;53.268;8.764;2022-09-09T06:38:46;8.02;;;5.60;;
72791;SDS011;60907;53.268;8.764;2022-09-09T06:41:12;11.10;;;5.43;;
72791;SDS011;60907;53.268;8.764;2022-09-09T06:43:39;11.75;;;5.82;;
72791;SDS011;60907;53.268;8.764;2022-09-09T06:46:09;13.20;;;6.03;;
72791;SDS011;60907;53.268;8.764;2022-09-09T06:48:36;11.35;;;6.32;;
72791;SDS011;60907;53.268;8.764;2022-09-09T06:51:05;9.52;;;5.65;;
72791;SDS011;60907;53.268;8.764;2022-09-09T06:53:33;12.18;;;5.97;;
72791;SDS011;60907;53.268;8.764;2022-09-09T06:58:27;12.70;;;6.07;;
72791;SDS011;60907;53.268;8.764;2022-09-09T07:01:01;12.75;;;6.13;;
72791;SDS011;60907;53.268;8.764;2022-09-09T07:03:27;8.90;;;5.47;;
72791;SDS011;60907;53.268;8.764;2022-09-09T07:05:53;9.57;;;5.57;;
72791;SDS011;60907;53.268;8.764;2022-09-09T07:08:21;9.30;;;6.53;;
72791;SDS011;60907;53.268;8.764;2022-09-09T07:10:47;12.10;;;6.50;;
72791;SDS011;60907;53.268;8.764;2022-09-09T07:13:12;8.23;;;5.03;;
72791;SDS011;60907;53.268;8.764;2022-09-09T07:15:40;9.93;;;4.90;;
72791;SDS011;60907;53.268;8.764;2022-09-09T07:18:06;8.00;;;4.75;;
72791;SDS011;60907;53.268;8.764;2022-09-09T07:20:32;9.18;;;5.35;;
72791;SDS011;60907;53.268;8.764;2022-09-09T07:22:57;9.43;;;4.95;;
72791;SDS011;60907;53.268;8.764;2022-09-09T07:25:24;8.20;;;4.80;;
72791;SDS011;60907;53.268;8.764;2022-09-09T07:27:52;8.07;;;4.57;;
72791;SDS011;60907;53.268;8.764;2022-09-09T07:30:18;7.40;;;4.78;;
72791;SDS011;60907;53.268;8.764;2022-09-09T07:32:44;8.88;;;4.35;;
72791;SDS011;60907;53.268;8.764;2022-09-09T07:35:09;7.55;;;4.70;;
72791;SDS011;60907;53.268;8.764;2022-09-09T07:37:36;7.63;;;4.10;;
72791;SDS011;60907;53.268;8.764;2022-09-09T07:40:02;9.43;;;4.00;;
72791;SDS011;60907;53.268;8.764;2022-09-09T07:42:28;6.88;;;3.55;;
72791;SDS011;60907;53.268;8.764;2022-09-09T07:44:54;5.40;;;3.38;;
72791;SDS011;60907;53.268;8.764;2022-09-09T07:47:20;7.70;;;3.30;;
72791;SDS011;60907;53.268;8.764;2022-09-09T07:49:45;9.27;;;3.47;;
72791;SDS011;60907;53.268;8.764;2022-09-09T07:52:11;5.25;;;3.03;;
72791;SDS011;60907;53.268;8.764;2022-09-09T07:54:37;4.05;;;2.70;;
72791;SDS011;60907;53.268;8.764;2022-09-09T07:57:02;7.10;;;4.55;;
72791;SDS011;60907;53.268;8.764;2022-09-09T07:59:29;5.18;;;3.60;;
72791;SDS011;60907;53.268;8.764;2022-09-09T08:01:55;10.32;;;4.32;;
72791;SDS011;60907;53.268;8.764;2022-09-09T08:04:22;7.20;;;4.07;;
72791;SDS011;60907;53.268;8.764;2022-09-09T08:06:52;6.95;;;4.35;;
72791;SDS011;60907;53.268;8.764;2022-09-09T08:09:20;7.05;;;3.85;;
72791;SDS011;60907;53.268;8.764;2022-09-09T08:11:46;10.55;;;3.83;;
72791;SDS011;60907;53.268;8.764;2022-09-09T08:14:12;7.72;;;4.20;;
72791;SDS011;60907;53.268;8.764;2022-09-09T08:16:39;7.00;;;3.42;;
72791;SDS011;60907;53.268;8.764;2022-09-09T08:19:06;7.47;;;4.03;;
72791;SDS011;60907;53.268;8.764;2022-09-09T08:21:33;12.18;;;3.92;;
72791;SDS011;60907;53.268;8.764;2022-09-09T08:24:01;8.20;;;3.78;;
72791;SDS011;60907;53.268;8.764;2022-09-09T08:26:29;5.72;;;3.40;;
72791;SDS011;60907;53.268;8.764;2022-09-09T08:28:56;5.38;;;3.15;;
72791;SDS011;60907;53.268;8.764;2022-09-09T08:31:23;6.93;;;2.95;;
72791;SDS011;60907;53.268;8.764;2022-09-09T08:33:50;6.28;;;2.80;;
72791;SDS011;60907;53.268;8.764;2022-09-09T08:36:18;6.05;;;3.30;;
72791;SDS011;60907;53.268;8.764;2022-09-09T08:38:48;7.18;;;3.65;;
72791;SDS011;60907;53.268;8.764;2022-09-09T08:51:59;6.47;;;3.67;;
72791;SDS011;60907;53.268;8.764;2022-09-09T08:54:26;5.18;;;4.05;;
72791;SDS011;60907;53.268;8.764;2022-09-09T08:56:58;7.28;;;4.43;;
72791;SDS011;60907;53.268;8.764;2022-09-09T08:59:24;8.63;;;4.95;;
72791;SDS011;60907;53.268;8.764;2022-09-09T09:10:08;10.10;;;8.20;;
72791;SDS011;60907;53.268;8.764;2022-09-09T09:12:41;13.15;;;8.63;;
72791;SDS011;60907;53.268;8.764;2022-09-09T09:15:17;11.43;;;6.95;;
72791;SDS011;60907;53.268;8.764;2022-09-09T09:17:46;11.35;;;7.35;;
72791;SDS011;60907;53.268;8.764;2022-09-09T09:20:12;19.17;;;9.10;;
72791;SDS011;60907;53.268;8.764;2022-09-09T09:25:23;8.85;;;7.47;;
72791;SDS011;60907;53.268;8.764;2022-09-09T09:31:04;11.40;;;6.85;;
72791;SDS011;60907;53.268;8.764;2022-09-09T09:36:06;8.32;;;5.60;;
72791;SDS011;60907;53.268;8.764;2022-09-09T09:38:34;8.25;;;5.93;;
72791;SDS011;60907;53.268;8.764;2022-09-09T09:41:01;7.35;;;6.22;;
72791;SDS011;60907;53.268;8.764;2022-09-09T09:43:27;6.40;;;5.80;;
72791;SDS011;60907;53.268;8.764;2022-09-09T09:45:54;11.30;;;8.10;;
72791;SDS011;60907;53.268;8.764;2022-09-09T09:48:22;12.63;;;8.55;;
72791;SDS011;60907;53.268;8.764;2022-09-09T09:53:18;12.10;;;7.63;;
72791;SDS011;60907;53.268;8.764;2022-09-09T09:55:53;11.63;;;8.18;;
72791;SDS011;60907;53.268;8.764;2022-09-09T09:58:19;10.07;;;7.43;;
72791;SDS011;60907;53.268;8.764;2022-09-09T10:00:51;7.83;;;5.97;;
72791;SDS011;60907;53.268;8.764;2022-09-09T10:03:28;7.43;;;5.30;;
72791;SDS011;60907;53.268;8.764;2022-09-09T10:05:54;8.07;;;5.15;;
72791;SDS011;60907;53.268;8.764;2022-09-09T10:08:27;6.38;;;5.38;;
72791;SDS011;60907;53.268;8.764;2022-09-09T10:13:42;9.48;;;4.50;;
72791;SDS011;60907;53.268;8.764;2022-09-09T10:19:09;10.43;;;4.43;;
72791;SDS011;60907;53.268;8.764;2022-09-09T10:27:43;5.80;;;2.92;;
72791;SDS011;60907;53.268;8.764;2022-09-09T10:38:40;5.28;;;2.22;;
72791;SDS011;60907;53.268;8.764;2022-09-09T10:41:11;2.80;;;1.90;;
72791;SDS011;60907;53.268;8.764;2022-09-09T10:57:10;6.22;;;2.78;;
72791;SDS011;60907;53.268;8.764;2022-09-09T10:59:40;6.43;;;2.72;;
72791;SDS011;60907;53.268;8.764;2022-09-09T11:02:50;6.57;;;2.60;;
72791;SDS011;60907;53.268;8.764;2022-09-09T11:04:59;6.88;;;2.75;;
72791;SDS011;60907;53.268;8.764;2022-09-09T11:09:58;3.90;;;2.37;;
72791;SDS011;60907;53.268;8.764;2022-09-09T11:12:26;3.70;;;1.90;;
72791;SDS011;60907;53.268;8.764;2022-09-09T11:15:04;3.75;;;2.47;;
72791;SDS011;60907;53.268;8.764;2022-09-09T11:17:42;4.18;;;2.60;;
72791;SDS011;60907;53.268;8.764;2022-09-09T11:20:12;4.05;;;2.65;;
72791;SDS011;60907;53.268;8.764;2022-09-09T11:25:29;5.57;;;2.72;;
72791;SDS011;60907;53.268;8.764;2022-09-09T11:36:01;4.85;;;3.40;;
72791;SDS011;60907;53.268;8.764;2022-09-09T11:38:40;6.00;;;3.40;;
72791;SDS011;60907;53.268;8.764;2022-09-09T11:41:10;6.35;;;3.40;;
72791;SDS011;60907;53.268;8.764;2022-09-09T11:43:40;3.85;;;3.28;;
72791;SDS011;60907;53.268;8.764;2022-09-09T11:46:08;6.95;;;3.25;;
72791;SDS011;60907;53.268;8.764;2022-09-09T11:48:35;6.63;;;3.72;;
72791;SDS011;60907;53.268;8.764;2022-09-09T12:01:50;10.23;;;6.80;;
72791;SDS011;60907;53.268;8.764;2022-09-09T12:06:54;7.68;;;4.07;;
72791;SDS011;60907;53.268;8.764;2022-09-09T12:19:41;4.85;;;2.03;;
72791;SDS011;60907;53.268;8.764;2022-09-09T12:24:51;6.97;;;4.40;;
72791;SDS011;60907;53.268;8.764;2022-09-09T12:27:25;9.65;;;4.20;;
72791;SDS011;60907;53.268;8.764;2022-09-09T12:32:35;6.97;;;3.42;;
72791;SDS011;60907;53.268;8.764;2022-09-09T12:40:00;8.00;;;3.17;;
72791;SDS011;60907;53.268;8.764;2022-09-09T12:42:31;7.88;;;3.22;;
72791;SDS011;60907;53.268;8.764;2022-09-09T12:45:01;7.38;;;3.22;;
72791;SDS011;60907;53.268;8.764;2022-09-09T12:48:02;6.45;;;2.95;;
72791;SDS011;60907;53.268;8.764;2022-09-09T12:50:25;8.23;;;2.70;;
72791;SDS011;60907;53.268;8.764;2022-09-09T12:52:54;3.92;;;2.65;;
72791;SDS011;60907;53.268;8.764;2022-09-09T12:55:33;6.47;;;3.22;;
72791;SDS011;60907;53.268;8.764;2022-09-09T12:58:01;4.32;;;2.63;;
72791;SDS011;60907;53.268;8.764;2022-09-09T13:00:29;5.57;;;3.00;;
72791;SDS011;60907;53.268;8.764;2022-09-09T13:02:57;5.88;;;2.38;;
72791;SDS011;60907;53.268;8.764;2022-09-09T13:08:01;6.13;;;2.38;;
72791;SDS011;60907;53.268;8.764;2022-09-09T13:10:32;7.65;;;2.72;;
72791;SDS011;60907;53.268;8.764;2022-09-09T13:12:59;4.13;;;2.25;;
72791;SDS011;60907;53.268;8.764;2022-09-09T13:15:26;5.82;;;2.53;;
72791;SDS011;60907;53.268;8.764;2022-09-09T13:17:57;4.80;;;2.83;;
72791;SDS011;60907;53.268;8.764;2022-09-09T13:20:26;6.47;;;2.58;;
72791;SDS011;60907;53.268;8.764;2022-09-09T13:22:52;6.72;;;3.22;;
72791;SDS011;60907;53.268;8.764;2022-09-09T13:30:25;5.35;;;3.00;;
72791;SDS011;60907;53.268;8.764;2022-09-09T13:32:59;5.30;;;3.55;;
72791;SDS011;60907;53.268;8.764;2022-09-09T13:35:34;8.95;;;3.20;;
72791;SDS011;60907;53.268;8.764;2022-09-09T13:38:09;6.47;;;3.25;;
72791;SDS011;60907;53.268;8.764;2022-09-09T13:40:35;3.90;;;3.03;;
72791;SDS011;60907;53.268;8.764;2022-09-09T13:43:01;3.75;;;2.67;;
72791;SDS011;60907;53.268;8.764;2022-09-09T13:45:28;5.22;;;2.67;;
72791;SDS011;60907;53.268;8.764;2022-09-09T13:47:54;3.47;;;2.20;;
72791;SDS011;60907;53.268;8.764;2022-09-09T13:50:21;2.50;;;2.03;;
72791;SDS011;60907;53.268;8.764;2022-09-09T13:52:47;3.55;;;2.35;;
72791;SDS011;60907;53.268;8.764;2022-09-09T13:55:15;4.22;;;2.00;;
72791;SDS011;60907;53.268;8.764;2022-09-09T13:57:49;4.18;;;2.70;;
72791;SDS011;60907;53.268;8.764;2022-09-09T14:02:51;4.88;;;2.08;;
72791;SDS011;60907;53.268;8.764;2022-09-09T14:05:17;4.60;;;2.08;;
72791;SDS011;60907;53.268;8.764;2022-09-09T14:07:44;3.05;;;1.85;;
72791;SDS011;60907;53.268;8.764;2022-09-09T14:10:10;3.90;;;1.88;;
72791;SDS011;60907;53.268;8.764;2022-09-09T14:12:36;3.90;;;2.25;;
72791;SDS011;60907;53.268;8.764;2022-09-09T14:15:02;4.07;;;1.88;;
72791;SDS011;60907;53.268;8.764;2022-09-09T14:19:55;5.60;;;2.83;;
72791;SDS011;60907;53.268;8.764;2022-09-09T14:22:21;4.93;;;2.45;;
72791;SDS011;60907;53.268;8.764;2022-09-09T14:24:46;6.63;;;2.88;;
72791;SDS011;60907;53.268;8.764;2022-09-09T14:27:12;4.45;;;2.50;;
72791;SDS011;60907;53.268;8.764;2022-09-09T14:29:37;4.70;;;2.85;;
72791;SDS011;60907;53.268;8.764;2022-09-09T14:32:03;6.00;;;2.97;;
72791;SDS011;60907;53.268;8.764;2022-09-09T14:34:28;3.67;;;2.40;;
72791;SDS011;60907;53.268;8.764;2022-09-09T14:36:54;3.58;;;2.67;;
72791;SDS011;60907;53.268;8.764;2022-09-09T14:39:19;5.22;;;2.95;;
72791;SDS011;60907;53.268;8.764;2022-09-09T14:41:44;5.87;;;2.83;;
72791;SDS011;60907;53.268;8.764;2022-09-09T14:44:10;6.45;;;3.35;;
72791;SDS011;60907;53.268;8.764;2022-09-09T14:46:36;4.50;;;2.60;;
72791;SDS011;60907;53.268;8.764;2022-09-09T14:49:02;7.85;;;3.33;;
72791;SDS011;60907;53.268;8.764;2022-09-09T14:51:28;3.78;;;3.17;;
72791;SDS011;60907;53.268;8.764;2022-09-09T14:53:56;8.75;;;3.85;;
72791;SDS011;60907;53.268;8.764;2022-09-09T14:56:24;7.15;;;3.70;;
72791;SDS011;60907;53.268;8.764;2022-09-09T14:58:52;7.10;;;4.35;;
72791;SDS011;60907;53.268;8.764;2022-09-09T15:01:20;7.43;;;3.88;;
72791;SDS011;60907;53.268;8.764;2022-09-09T15:03:52;8.88;;;4.43;;
72791;SDS011;60907;53.268;8.764;2022-09-09T15:06:20;5.80;;;3.78;;
72791;SDS011;60907;53.268;8.764;2022-09-09T15:08:46;7.57;;;3.83;;
72791;SDS011;60907;53.268;8.764;2022-09-09T15:11:12;6.35;;;3.72;;
72791;SDS011;60907;53.268;8.764;2022-09-09T15:13:39;8.93;;;4.45;;
72791;SDS011;60907;53.268;8.764;2022-09-09T15:16:06;16.67;;;4.80;;
72791;SDS011;60907;53.268;8.764;2022-09-09T15:18:33;6.28;;;4.47;;
72791;SDS011;60907;53.268;8.764;2022-09-09T15:20:59;5.65;;;3.97;;
72791;SDS011;60907;53.268;8.764;2022-09-09T15:23:26;8.45;;;4.93;;
72791;SDS011;60907;53.268;8.764;2022-09-09T15:25:55;6.10;;;4.05;;
72791;SDS011;60907;53.268;8.764;2022-09-09T15:28:21;7.30;;;4.78;;
72791;SDS011;60907;53.268;8.764;2022-09-09T15:30:50;5.35;;;4.05;;
72791;SDS011;60907;53.268;8.764;2022-09-09T15:33:17;5.00;;;3.60;;
72791;SDS011;60907;53.268;8.764;2022-09-09T15:35:43;6.57;;;3.80;;
72791;SDS011;60907;53.268;8.764;2022-09-09T15:38:10;8.20;;;3.65;;
72791;SDS011;60907;53.268;8.764;2022-09-09T15:40:38;7.43;;;4.30;;
72791;SDS011;60907;53.268;8.764;2022-09-09T15:43:04;5.03;;;3.80;;
72791;SDS011;60907;53.268;8.764;2022-09-09T15:47:58;8.48;;;4.75;;
72791;SDS011;60907;53.268;8.764;2022-09-09T15:50:24;10.68;;;5.75;;
72791;SDS011;60907;53.268;8.764;2022-09-09T15:52:49;6.43;;;4.25;;
72791;SDS011;60907;53.268;8.764;2022-09-09T15:55:16;7.13;;;3.83;;
72791;SDS011;60907;53.268;8.764;2022-09-09T15:57:42;9.10;;;4.00;;
72791;SDS011;60907;53.268;8.764;2022-09-09T16:00:08;7.82;;;3.88;;
72791;SDS011;60907;53.268;8.764;2022-09-09T16:02:34;6.65;;;4.15;;
72791;SDS011;60907;53.268;8.764;2022-09-09T16:04:59;6.57;;;3.90;;
72791;SDS011;60907;53.268;8.764;2022-09-09T16:07:26;8.23;;;3.38;;
72791;SDS011;60907;53.268;8.764;2022-09-09T16:09:51;4.90;;;3.80;;
72791;SDS011;60907;53.268;8.764;2022-09-09T16:12:17;8.05;;;3.53;;
72791;SDS011;60907;53.268;8.764;2022-09-09T16:14:43;4.63;;;3.22;;
72791;SDS011;60907;53.268;8.764;2022-09-09T16:17:10;6.47;;;3.83;;
72791;SDS011;60907;53.268;8.764;2022-09-09T16:19:36;10.68;;;7.35;;
72791;SDS011;60907;53.268;8.764;2022-09-09T16:22:02;6.65;;;4.07;;
72791;SDS011;60907;53.268;8.764;2022-09-09T16:24:29;5.10;;;3.83;;
72791;SDS011;60907;53.268;8.764;2022-09-09T16:26:54;6.32;;;3.22;;
72791;SDS011;60907;53.268;8.764;2022-09-09T16:29:20;5.13;;;3.60;;
72791;SDS011;60907;53.268;8.764;2022-09-09T16:31:47;13.70;;;5.90;;
72791;SDS011;60907;53.268;8.764;2022-09-09T16:34:13;6.28;;;3.40;;
72791;SDS011;60907;53.268;8.764;2022-09-09T16:36:39;5.00;;;3.17;;
72791;SDS011;60907;53.268;8.764;2022-09-09T16:39:06;6.78;;;2.95;;
72791;SDS011;60907;53.268;8.764;2022-09-09T16:41:34;6.43;;;3.63;;
72791;SDS011;60907;53.268;8.764;2022-09-09T16:44:01;3.90;;;3.28;;
72791;SDS011;60907;53.268;8.764;2022-09-09T16:46:34;5.20;;;3.17;;
72791;SDS011;60907;53.268;8.764;2022-09-09T16:49:02;4.30;;;2.92;;
72791;SDS011;60907;53.268;8.764;2022-09-09T16:51:31;4.93;;;3.53;;
72791;SDS011;60907;53.268;8.764;2022-09-09T16:53:58;6.40;;;3.38;;
72791;SDS011;60907;53.268;8.764;2022-09-09T16:56:26;6.47;;;3.67;;
72791;SDS011;60907;53.268;8.764;2022-09-09T16:58:58;6.20;;;3.30;;
72791;SDS011;60907;53.268;8.764;2022-09-09T17:01:25;6.13;;;3.15;;
72791;SDS011;60907;53.268;8.764;2022-09-09T17:03:57;3.92;;;3.05;;
72791;SDS011;60907;53.268;8.764;2022-09-09T17:06:25;5.15;;;3.75;;
72791;SDS011;60907;53.268;8.764;2022-09-09T17:08:55;21.20;;;13.55;;
72791;SDS011;60907;53.268;8.764;2022-09-09T17:11:21;6.00;;;3.83;;
72791;SDS011;60907;53.268;8.764;2022-09-09T17:13:46;6.50;;;4.13;;
72791;SDS011;60907;53.268;8.764;2022-09-09T17:16:12;4.22;;;3.47;;
72791;SDS011;60907;53.268;8.764;2022-09-09T17:18:39;6.78;;;4.13;;
72791;SDS011;60907;53.268;8.764;2022-09-09T17:21:05;12.00;;;8.05;;
72791;SDS011;60907;53.268;8.764;2022-09-09T17:23:35;13.23;;;5.45;;
72791;SDS011;60907;53.268;8.764;2022-09-09T17:26:05;9.68;;;4.00;;
72791;SDS011;60907;53.268;8.764;2022-09-09T17:28:32;6.80;;;4.18;;
72791;SDS011;60907;53.268;8.764;2022-09-09T17:30:58;8.18;;;4.38;;
72791;SDS011;60907;53.268;8.764;2022-09-09T17:33:31;5.57;;;3.83;;
72791;SDS011;60907;53.268;8.764;2022-09-09T17:36:07;7.63;;;3.92;;
72791;SDS011;60907;53.268;8.764;2022-09-09T17:38:35;9.00;;;4.15;;
72791;SDS011;60907;53.268;8.764;2022-09-09T17:41:04;6.47;;;3.92;;
72791;SDS011;60907;53.268;8.764;2022-09-09T17:43:31;16.63;;;9.20;;
72791;SDS011;60907;53.268;8.764;2022-09-09T17:46:08;7.25;;;5.05;;
72791;SDS011;60907;53.268;8.764;2022-09-09T17:48:40;8.20;;;4.75;;
72791;SDS011;60907;53.268;8.764;2022-09-09T17:53:41;4.63;;;2.72;;
72791;SDS011;60907;53.268;8.764;2022-09-09T17:56:09;8.10;;;4.78;;
72791;SDS011;60907;53.268;8.764;2022-09-09T17:58:35;5.00;;;3.42;;
72791;SDS011;60907;53.268;8.764;2022-09-09T18:01:05;4.32;;;2.55;;
72791;SDS011;60907;53.268;8.764;2022-09-09T18:03:35;4.28;;;2.92;;
72791;SDS011;60907;53.268;8.764;2022-09-09T18:06:05;4.35;;;3.50;;
72791;SDS011;60907;53.268;8.764;2022-09-09T18:08:32;4.25;;;2.45;;